Time;durP1;ratioP1;P1;durP2;ratioP2;P2;SDS_P1;SDS_P2;PMS_P1;PMS_P2;Temp;Humidity;BMP_temperature;BMP_pressure;BME280_temperature;BME280_humidity;BME280_pressure;Samples;Min_cycle;Max_cycle;Signal;HPM_P1;HPM_P2
2022/08/30 00:01:04;;;;;;;10.68;9.05;;;;;;;26.55;59.65;101298.50;5008800;28;20049;-82
2022/08/30 00:03:44;;;;;;;16.02;11.75;;;;;;;26.64;60.14;101313.47;5008489;28;20070;-82
2022/08/30 00:06:13;;;;;;;10.57;9.23;;;;;;;26.17;60.06;101240.44;5011112;28;20144;-81
2022/08/30 00:08:44;;;;;;;16.88;10.88;;;;;;;26.70;60.59;101328.06;4995800;28;20101;-79
2022/08/30 00:11:14;;;;;;;11.13;9.52;;;;;;;26.59;60.57;101316.06;4993856;28;20054;-82
2022/08/30 00:13:44;;;;;;;16.30;11.48;;;;;;;25.99;60.74;101224.06;5009402;28;20438;-81
2022/08/30 00:16:12;;;;;;;16.00;10.73;;;;;;;26.55;60.50;101304.78;4992898;28;20049;-81
2022/08/30 00:18:39;;;;;;;11.07;9.73;;;;;;;26.60;59.43;101317.72;5008592;28;20552;-82
2022/08/30 00:21:07;;;;;;;21.45;10.40;;;;;;;26.46;60.78;101297.94;4992224;28;20473;-82
2022/08/30 00:23:34;;;;;;;12.48;10.70;;;;;;;26.52;60.71;101309.81;5004872;28;20501;-82
2022/08/30 00:26:01;;;;;;;13.15;9.20;;;;;;;26.62;60.58;101321.03;4973085;28;20442;-82
2022/08/30 00:28:29;;;;;;;11.25;9.30;;;;;;;26.34;60.08;101275.25;4989979;28;20081;-82
2022/08/30 00:30:55;;;;;;;9.45;8.43;;;;;;;26.69;59.45;101320.97;4972918;28;20112;-81
2022/08/30 00:33:22;;;;;;;14.63;9.52;;;;;;;26.14;59.47;101221.00;4973026;28;20062;-83
2022/08/30 00:35:49;;;;;;;14.40;9.27;;;;;;;26.57;60.12;101285.50;4988700;28;20054;-82
2022/08/30 00:38:16;;;;;;;14.25;10.02;;;;;;;26.59;60.19;101289.66;4990105;28;20104;-81
2022/08/30 00:40:43;;;;;;;16.30;10.88;;;;;;;26.40;60.18;101258.00;4972017;28;20057;-82
2022/08/30 00:43:19;;;;;;;19.23;11.90;;;;;;;26.49;60.98;101288.50;4989863;28;20116;-81
2022/08/30 00:45:45;;;;;;;16.77;11.43;;;;;;;26.42;61.43;101294.00;4972563;28;20116;-82
2022/08/30 00:48:12;;;;;;;14.95;13.45;;;;;;;26.36;61.76;101294.88;4972810;28;20483;-81
2022/08/30 00:50:44;;;;;;;17.38;14.02;;;;;;;26.29;62.14;101291.38;4990023;28;20478;-81
2022/08/30 00:53:15;;;;;;;14.93;10.68;;;;;;;26.26;62.23;101287.22;4989893;28;20050;-81
2022/08/30 00:55:43;;;;;;;17.52;13.77;;;;;;;26.33;62.39;101300.78;4972527;28;20053;-81
2022/08/30 00:58:20;;;;;;;19.42;12.45;;;;;;;26.29;62.34;101294.13;4971797;28;20074;-82
2022/08/30 01:00:49;;;;;;;14.25;12.75;;;;;;;26.21;62.56;101287.94;4985019;28;20121;-82
2022/08/30 01:03:16;;;;;;;12.85;11.23;;;;;;;26.03;62.28;101266.09;4950924;28;20457;-80
2022/08/30 01:05:44;;;;;;;19.08;12.15;;;;;;;25.95;62.22;101237.31;4947226;28;20054;-83
2022/08/30 01:08:11;;;;;;;16.95;11.07;;;;;;;26.41;61.80;101300.50;4947989;28;20265;-82
2022/08/30 01:10:38;;;;;;;13.23;8.93;;;;;;;26.20;62.11;101286.25;4949497;28;20145;-81
2022/08/30 01:13:04;;;;;;;9.27;8.38;;;;;;;26.06;61.81;101273.81;4947620;28;20051;-82
2022/08/30 01:15:32;;;;;;;16.52;10.05;;;;;;;26.09;61.47;101283.41;4948819;28;20358;-81
2022/08/30 01:18:00;;;;;;;12.38;10.10;;;;;;;25.74;61.78;101241.19;4947526;28;20125;-81
2022/08/30 01:20:34;;;;;;;11.13;8.38;;;;;;;25.81;61.34;101252.03;4948448;28;20658;-81
2022/08/30 01:23:08;;;;;;;12.07;8.43;;;;;;;25.86;61.50;101260.38;4964367;28;20118;-82
2022/08/30 01:25:36;;;;;;;10.80;8.55;;;;;;;25.79;61.34;101256.84;4986045;28;20385;-81
2022/08/30 01:28:08;;;;;;;10.13;8.30;;;;;;;25.94;61.28;101297.34;4986608;28;20501;-81
2022/08/30 01:30:39;;;;;;;;;;;;;;;25.87;61.29;101296.56;4970495;28;20148;-82
2022/08/30 01:33:07;;;;;;;12.27;8.75;;;;;;;25.76;61.56;101290.75;4971140;28;20389;-81
2022/08/30 01:35:48;;;;;;;16.23;8.95;;;;;;;25.77;61.17;101292.41;4969337;28;20453;-81
2022/08/30 01:38:17;;;;;;;10.23;8.65;;;;;;;25.82;61.31;101296.38;4985442;28;20577;-81
2022/08/30 01:40:44;;;;;;;12.60;8.05;;;;;;;25.75;61.09;101278.25;4985695;28;20057;-82
2022/08/30 01:43:13;;;;;;;8.90;7.80;;;;;;;25.78;61.15;101283.22;4969993;28;20168;-81
2022/08/30 01:45:40;;;;;;;10.48;8.13;;;;;;;25.73;60.68;101272.19;4985359;28;20454;-82
2022/08/30 01:48:08;;;;;;;8.80;7.68;;;;;;;25.70;60.58;101259.00;4969640;28;20056;-82
2022/08/30 01:50:35;;;;;;;9.80;8.80;;;;;;;25.44;60.45;101226.56;4984891;28;20073;-81
2022/08/30 01:53:06;;;;;;;12.65;7.50;;;;;;;25.68;60.49;101268.44;4970033;28;20072;-82
2022/08/30 01:55:32;;;;;;;9.10;7.38;;;;;;;25.55;60.27;101263.94;4968552;28;20058;-81
2022/08/30 01:58:00;;;;;;;8.18;7.40;;;;;;;25.78;59.73;101291.38;4985566;28;20061;-81
2022/08/30 02:00:26;;;;;;;10.88;8.20;;;;;;;25.66;59.55;101262.41;4951928;28;20045;-81
2022/08/30 02:02:53;;;;;;;8.07;7.28;;;;;;;25.75;59.47;101278.25;4966801;28;20557;-81
2022/08/30 02:05:20;;;;;;;9.57;7.60;;;;;;;25.05;59.27;101174.13;4965749;28;20105;-81
2022/08/30 02:07:47;;;;;;;9.85;6.88;;;;;;;25.60;59.44;101266.81;4966372;28;20068;-80
2022/08/30 02:10:13;;;;;;;7.60;6.90;;;;;;;25.42;59.36;101231.41;4965452;28;20604;-81
2022/08/30 02:12:41;;;;;;;10.40;7.97;;;;;;;25.74;59.02;101301.03;4954102;28;20386;-82
2022/08/30 02:15:08;;;;;;;9.15;7.88;;;;;;;25.51;59.05;101249.09;4969577;28;20141;-83
2022/08/30 02:17:35;;;;;;;9.10;8.18;;;;;;;25.50;59.05;101250.19;4966607;28;20159;-83
2022/08/30 02:20:04;;;;;;;7.47;6.78;;;;;;;25.38;59.28;101223.69;4966977;28;20533;-83
2022/08/30 02:22:31;;;;;;;8.55;7.72;;;;;;;25.59;59.34;101265.16;4950079;28;20149;-83
2022/08/30 02:24:58;;;;;;;8.48;7.32;;;;;;;25.69;59.23;101278.28;4965218;28;20499;-81
2022/08/30 02:27:25;;;;;;;8.75;7.35;;;;;;;25.77;59.03;101289.69;4968367;28;20081;-83
2022/08/30 02:29:52;;;;;;;8.13;7.32;;;;;;;25.66;59.25;101278.72;4968488;28;20127;-81
2022/08/30 02:32:19;;;;;;;9.73;7.65;;;;;;;25.50;59.18;101263.75;4968264;28;20697;-82
2022/08/30 02:34:46;;;;;;;8.27;7.35;;;;;;;25.59;59.33;101293.19;4986404;28;21056;-81
2022/08/30 02:37:14;;;;;;;12.00;8.15;;;;;;;25.64;59.74;101308.84;4984686;28;20604;-82
2022/08/30 02:39:41;;;;;;;12.35;8.25;;;;;;;25.57;59.53;101292.56;4986528;28;20053;-83
2022/08/30 02:42:08;;;;;;;16.38;8.95;;;;;;;25.59;60.29;101301.34;4967913;28;20138;-82
2022/08/30 02:44:35;;;;;;;14.75;10.30;;;;;;;25.59;60.89;101314.94;4968589;28;20049;-83
2022/08/30 02:47:02;;;;;;;12.68;9.85;;;;;;;25.55;61.28;101318.31;4984415;28;20262;-82
2022/08/30 02:49:28;;;;;;;10.98;8.85;;;;;;;25.50;61.41;101318.97;4986259;28;20853;-83
2022/08/30 02:52:01;;;;;;;12.93;9.35;;;;;;;25.47;61.43;101315.84;4986797;28;20057;-83
2022/08/30 02:54:28;;;;;;;12.57;9.98;;;;;;;25.22;61.88;101273.13;4984775;28;20049;-82
2022/08/30 02:56:55;;;;;;;15.13;9.02;;;;;;;25.53;61.83;101314.97;4984364;28;20056;-81
2022/08/30 02:59:21;;;;;;;13.45;10.57;;;;;;;25.50;61.94;101318.13;4959831;28;20557;-81
2022/08/30 03:01:48;;;;;;;12.38;10.00;;;;;;;25.45;62.50;101315.22;4966099;28;20069;-82
2022/08/30 03:04:15;;;;;;;13.88;10.25;;;;;;;25.47;62.19;101313.97;4966069;28;20466;-83
2022/08/30 03:06:42;;;;;;;17.20;11.50;;;;;;;25.48;62.48;101315.63;4949013;28;20065;-82
2022/08/30 03:09:09;;;;;;;15.20;12.13;;;;;;;25.47;62.66;101307.69;4948869;28;20179;-82
2022/08/30 03:11:36;;;;;;;15.40;11.10;;;;;;;25.47;62.79;101324.00;4948586;28;20532;-83
2022/08/30 03:14:03;;;;;;;13.63;12.15;;;;;;;25.36;63.39;101323.63;4953075;28;20707;-81
2022/08/30 03:16:29;;;;;;;16.70;12.82;;;;;;;25.13;63.77;101293.41;4969666;28;20057;-81
2022/08/30 03:18:56;;;;;;;15.20;13.00;;;;;;;25.05;63.85;101296.38;4987232;28;20137;-81
2022/08/30 03:21:23;;;;;;;14.32;12.52;;;;;;;25.11;64.02;101304.50;4974317;28;20100;-81
2022/08/30 03:23:49;;;;;;;15.35;12.15;;;;;;;25.05;63.70;101293.66;4983279;28;20069;-81
2022/08/30 03:26:16;;;;;;;16.75;13.55;;;;;;;25.10;63.70;101315.59;4995840;28;20053;-81
2022/08/30 03:28:43;;;;;;;13.55;11.48;;;;;;;25.03;63.75;101307.47;5011615;28;20042;-81
2022/08/30 03:31:10;;;;;;;14.13;11.98;;;;;;;24.99;63.64;101291.81;4995679;28;20115;-82
2022/08/30 03:33:39;;;;;;;14.55;10.30;;;;;;;24.51;63.35;101217.00;4995672;28;20081;-82
2022/08/30 03:36:07;;;;;;;13.50;11.93;;;;;;;25.07;63.42;101307.84;5012136;28;20054;-82
2022/08/30 03:38:34;;;;;;;16.73;12.75;;;;;;;25.12;63.56;101321.63;5011969;28;20054;-82
2022/08/30 03:41:01;;;;;;;29.42;18.20;;;;;;;25.19;64.15;101330.59;5013203;28;20137;-81
2022/08/30 03:43:28;;;;;;;25.92;17.35;;;;;;;25.14;65.29;101346.69;5011709;28;20118;-82
2022/08/30 03:45:55;;;;;;;20.50;16.40;;;;;;;25.06;65.83;101353.19;4995482;28;20083;-81
2022/08/30 03:48:22;;;;;;;24.10;21.30;;;;;;;25.02;66.04;101342.97;4995704;28;20292;-81
2022/08/30 03:50:49;;;;;;;30.48;19.52;;;;;;;24.74;66.27;101304.22;4995526;28;20054;-81
2022/08/30 03:53:15;;;;;;;19.98;17.83;;;;;;;24.99;66.11;101337.97;4995617;28;20107;-81
2022/08/30 03:55:42;;;;;;;18.23;16.15;;;;;;;24.89;65.79;101317.53;4995576;28;20054;-81
2022/08/30 03:58:09;;;;;;;18.52;14.68;;;;;;;24.71;65.86;101280.22;5011475;28;20053;-81
2022/08/30 04:00:36;;;;;;;19.90;15.60;;;;;;;24.63;65.21;101257.88;4977029;28;20050;-81
2022/08/30 04:03:03;;;;;;;23.65;16.40;;;;;;;24.96;65.24;101309.38;4975942;28;20065;-81
2022/08/30 04:05:30;;;;;;;15.35;13.23;;;;;;;24.89;64.92;101303.13;4975945;28;20046;-81
2022/08/30 04:07:57;;;;;;;18.00;13.35;;;;;;;25.08;64.61;101325.84;4976200;28;20046;-82
2022/08/30 04:10:23;;;;;;;19.27;13.10;;;;;;;24.88;64.23;101272.44;4976303;28;20094;-81
2022/08/30 04:12:50;;;;;;;13.80;12.07;;;;;;;24.89;64.52;101290.38;4976548;28;20053;-80
2022/08/30 04:15:17;;;;;;;15.05;13.40;;;;;;;25.02;64.69;101321.25;4979632;28;20376;-80
2022/08/30 04:17:45;;;;;;;12.35;11.05;;;;;;;24.78;64.20;101285.59;4982742;28;20054;-81
2022/08/30 04:20:11;;;;;;;18.60;15.15;;;;;;;24.97;64.41;101329.22;4977860;28;20082;-80
2022/08/30 04:22:38;;;;;;;15.02;12.98;;;;;;;24.94;64.77;101341.34;4976360;28;20187;-80
2022/08/30 04:25:06;;;;;;;14.88;12.68;;;;;;;25.01;64.47;101347.56;5010358;28;20795;-81
2022/08/30 04:27:32;;;;;;;18.25;12.35;;;;;;;24.40;65.17;101291.72;4995221;28;20488;-80
2022/08/30 04:30:00;;;;;;;19.55;12.75;;;;;;;24.80;65.60;101359.53;4994964;28;20115;-81
2022/08/30 04:32:26;;;;;;;16.42;13.75;;;;;;;24.59;65.76;101343.50;4992051;28;20054;-81
2022/08/30 04:34:57;;;;;;;19.75;16.05;;;;;;;24.35;66.15;101304.28;4992044;28;20046;-82
2022/08/30 04:37:24;;;;;;;17.75;15.63;;;;;;;24.43;66.53;101337.44;5008000;28;20104;-81
2022/08/30 04:39:59;;;;;;;32.05;22.05;;;;;;;24.60;66.91;101365.00;4992282;28;20137;-80
2022/08/30 04:42:30;;;;;;;19.77;16.40;;;;;;;24.60;67.35;101372.31;5007596;28;20100;-80
2022/08/30 04:44:58;;;;;;;22.20;16.17;;;;;;;24.31;67.29;101334.50;5009270;28;20075;-81
2022/08/30 04:47:25;;;;;;;21.63;17.30;;;;;;;24.32;67.61;101338.06;4991137;28;20525;-81
2022/08/30 04:49:52;;;;;;;21.95;17.80;;;;;;;24.24;67.51;101325.53;5007825;28;20341;-81
2022/08/30 04:52:20;;;;;;;23.52;18.20;;;;;;;24.51;67.82;101372.53;4991653;28;20046;-81
2022/08/30 04:54:46;;;;;;;27.70;17.90;;;;;;;24.39;68.19;101360.59;5002490;28;20074;-82
2022/08/30 04:57:13;;;;;;;26.70;19.42;;;;;;;24.53;68.50;101397.56;4972742;28;20089;-82
2022/08/30 04:59:40;;;;;;;32.33;19.73;;;;;;;24.23;68.61;101347.47;4982904;28;20061;-80
2022/08/30 05:02:06;;;;;;;25.63;18.20;;;;;;;24.47;68.67;101384.84;4991154;28;20509;-81
2022/08/30 05:05:38;;;;;;;22.40;17.83;;;;;;;24.43;68.81;101383.56;5007646;28;20046;-81
2022/08/30 05:07:24;;;;;;;25.52;18.50;;;;;;;24.14;68.62;101335.97;5008926;28;20046;-80
2022/08/30 05:09:50;;;;;;;30.63;18.33;;;;;;;24.50;68.51;101399.88;4991338;28;20045;-81
2022/08/30 05:12:17;;;;;;;21.20;16.33;;;;;;;24.48;68.15;101401.97;4991441;28;20070;-81
2022/08/30 05:14:44;;;;;;;18.60;16.60;;;;;;;24.51;68.10;101404.25;4978814;28;20524;-81
2022/08/30 05:17:11;;;;;;;16.65;13.63;;;;;;;24.01;68.06;101320.56;4971481;28;20493;-80
2022/08/30 05:19:38;;;;;;;16.02;13.18;;;;;;;24.36;67.04;101362.91;4971633;28;20058;-81
2022/08/30 05:22:04;;;;;;;19.25;12.27;;;;;;;23.94;66.84;101306.16;4971511;28;20054;-80
2022/08/30 05:24:31;;;;;;;26.42;13.25;;;;;;;24.40;66.77;101373.13;4991126;28;20491;-80
2022/08/30 05:26:58;;;;;;;19.33;11.98;;;;;;;24.31;66.77;101363.53;4972271;28;20046;-83
2022/08/30 05:29:24;;;;;;;12.80;11.52;;;;;;;24.19;66.23;101346.22;4988639;28;20050;-82
2022/08/30 05:31:51;;;;;;;12.50;10.52;;;;;;;24.25;65.66;101357.06;4970689;28;20120;-80
2022/08/30 05:34:19;;;;;;;12.32;10.10;;;;;;;24.72;65.51;101414.91;4988962;28;20141;-81
2022/08/30 05:36:46;;;;;;;11.80;10.00;;;;;;;24.45;65.61;101369.81;4987745;28;20057;-82
2022/08/30 05:39:12;;;;;;;14.60;10.60;;;;;;;24.78;65.43;101412.38;4891347;28;20066;-81
2022/08/30 05:41:39;;;;;;;16.85;10.48;;;;;;;24.53;65.19;101381.28;4903973;28;20625;-80
2022/08/30 05:44:08;;;;;;;13.85;11.15;;;;;;;24.66;64.66;101401.31;4886681;28;20496;-82
2022/08/30 05:46:35;;;;;;;16.77;10.27;;;;;;;24.67;64.23;101395.69;4956106;28;20426;-81
2022/08/30 05:49:04;;;;;;;11.48;9.82;;;;;;;24.78;64.13;101402.34;4962947;28;20050;-82
2022/08/30 05:51:34;;;;;;;16.48;12.70;;;;;;;24.91;64.00;101424.06;4944534;28;20621;-81
2022/08/30 05:54:06;;;;;;;26.05;12.50;;;;;;;24.59;63.75;101366.06;4869548;28;20495;-82
2022/08/30 05:56:35;;;;;;;13.23;10.98;;;;;;;24.94;63.65;101429.06;4927060;28;20177;-81
2022/08/30 05:59:04;;;;;;;17.80;11.70;;;;;;;24.98;63.72;101434.06;4944636;28;20625;-81
2022/08/30 06:01:37;;;;;;;15.02;10.50;;;;;;;23.86;63.81;101250.25;4944903;28;20059;-80
2022/08/30 06:04:05;;;;;;;16.02;10.57;;;;;;;25.08;63.33;101442.63;4947075;28;20063;-81
2022/08/30 06:06:34;;;;;;;13.27;9.43;;;;;;;24.95;63.03;101398.16;4946868;28;20114;-83
2022/08/30 06:09:03;;;;;;;21.63;10.95;;;;;;;25.08;62.55;101410.88;4968593;28;20668;-82
2022/08/30 06:11:32;;;;;;;20.08;9.85;;;;;;;25.23;62.79;101435.09;4930257;28;20065;-82
2022/08/30 06:13:59;;;;;;;15.77;8.32;;;;;;;25.19;62.04;101422.97;4947352;28;20065;-81
2022/08/30 06:16:28;;;;;;;12.23;7.88;;;;;;;25.11;60.83;101390.59;4945961;28;20054;-82
2022/08/30 06:18:57;;;;;;;13.60;9.15;;;;;;;25.34;60.46;101429.03;4949926;28;20050;-81
2022/08/30 06:21:28;;;;;;;10.43;9.15;;;;;;;25.53;60.42;101434.56;4968874;28;20294;-82
2022/08/30 06:23:59;;;;;;;13.88;9.48;;;;;;;25.54;61.24;101433.53;4967863;28;20042;-82
2022/08/30 06:26:27;;;;;;;17.70;11.70;;;;;;;25.07;61.43;101343.16;4965489;28;20058;-81
2022/08/30 06:28:56;;;;;;;12.68;10.40;;;;;;;25.47;61.89;101405.56;4966384;28;20082;-82
2022/08/30 06:31:32;;;;;;;18.63;11.68;;;;;;;25.63;61.80;101420.53;4965134;28;20200;-81
2022/08/30 06:33:59;;;;;;;14.18;9.25;;;;;;;25.61;61.32;101418.03;4956963;28;20145;-81
2022/08/30 06:36:26;;;;;;;14.85;10.75;;;;;;;25.47;60.69;101383.81;4945293;28;20700;-82
2022/08/30 06:38:54;;;;;;;12.05;7.50;;;;;;;25.72;59.68;101425.50;4947024;28;20074;-83
2022/08/30 06:41:27;;;;;;;10.80;7.75;;;;;;;25.88;59.45;101434.25;4964399;28;20167;-82
2022/08/30 06:43:54;;;;;;;11.30;7.25;;;;;;;25.93;58.73;101443.41;4966189;28;20157;-81
2022/08/30 06:46:28;;;;;;;7.88;6.80;;;;;;;25.75;57.88;101419.63;4947609;28;20160;-83
2022/08/30 06:48:55;;;;;;;10.88;7.20;;;;;;;25.76;58.36;101421.31;4948560;28;20054;-82
2022/08/30 06:51:25;;;;;;;9.52;7.93;;;;;;;25.91;58.64;101439.25;4946673;28;20050;-83
2022/08/30 06:53:55;;;;;;;8.45;7.57;;;;;;;24.79;57.77;101235.69;4948989;28;20420;-82
2022/08/30 06:56:22;;;;;;;16.20;8.13;;;;;;;25.86;57.93;101409.97;4945966;28;20521;-83
2022/08/30 06:58:51;;;;;;;8.15;6.80;;;;;;;26.18;56.32;101440.75;4950673;28;20092;-82
2022/08/30 07:01:21;;;;;;;11.55;7.32;;;;;;;25.94;55.90;101409.72;4966079;28;20050;-81
2022/08/30 07:03:49;;;;;;;10.95;7.07;;;;;;;25.98;57.00;101427.28;4966964;28;20241;-82
2022/08/30 07:06:16;;;;;;;8.30;7.10;;;;;;;25.94;56.60;101414.31;4965879;28;20058;-83
2022/08/30 07:08:45;;;;;;;10.45;7.53;;;;;;;25.77;56.63;101382.16;4968256;28;20097;-82
2022/08/30 07:11:13;;;;;;;9.82;7.70;;;;;;;25.74;56.08;101379.88;4965539;28;20429;-83
2022/08/30 07:13:40;;;;;;;12.25;7.38;;;;;;;25.93;56.79;101405.34;4966133;28;20054;-83
2022/08/30 07:16:11;;;;;;;11.90;8.05;;;;;;;25.53;56.62;101337.53;4967928;28;20062;-83
2022/08/30 07:18:50;;;;;;;10.10;8.10;;;;;;;26.21;56.97;101434.88;4965950;28;20054;-82
2022/08/30 07:21:20;;;;;;;8.77;7.50;;;;;;;24.92;55.83;101229.38;4942392;28;20047;-83
2022/08/30 07:23:48;;;;;;;13.05;7.63;;;;;;;26.20;55.40;101414.16;4943583;28;20502;-82
2022/08/30 07:26:23;;;;;;;9.45;8.10;;;;;;;26.43;55.17;101448.09;4943491;28;20845;-82
2022/08/30 07:28:50;;;;;;;8.93;7.32;;;;;;;26.36;55.26;101420.94;4946209;28;20169;-81
2022/08/30 07:31:22;;;;;;;14.68;7.53;;;;;;;26.51;55.45;101423.34;4946364;28;20818;-83
2022/08/30 07:33:49;;;;;;;13.23;8.80;;;;;;;26.47;56.11;101413.94;4945964;28;20058;-82
2022/08/30 07:36:16;;;;;;;9.13;8.05;;;;;;;26.54;55.63;101419.38;4946612;28;20539;-83
2022/08/30 07:38:47;;;;;;;11.20;8.90;;;;;;;26.57;56.08;101419.75;4947248;28;20055;-81
2022/08/30 07:41:26;;;;;;;17.80;11.20;;;;;;;26.09;56.24;101316.88;4946398;28;20169;-82
2022/08/30 07:43:54;;;;;;;12.27;10.25;;;;;;;26.79;56.36;101413.88;4946159;28;20165;-82
2022/08/30 07:46:22;;;;;;;14.85;10.38;;;;;;;26.78;56.61;101414.97;4946250;28;20578;-81
2022/08/30 07:48:49;;;;;;;11.70;9.75;;;;;;;26.35;57.31;101336.78;4946246;28;20054;-82
2022/08/30 07:51:19;;;;;;;18.50;10.35;;;;;;;26.76;57.13;101408.91;4946039;28;20451;-82
2022/08/30 07:53:45;;;;;;;13.57;9.77;;;;;;;26.71;57.12;101395.13;4945937;28;20082;-81
2022/08/30 07:56:13;;;;;;;14.70;9.73;;;;;;;25.55;57.46;101201.41;4945456;28;20446;-82
2022/08/30 07:58:39;;;;;;;11.40;10.20;;;;;;;26.93;57.59;101414.59;4964641;28;20075;-81
2022/08/30 08:01:08;;;;;;;11.23;10.18;;;;;;;26.53;57.65;101345.03;4959368;28;20568;-81
2022/08/30 08:03:39;;;;;;;14.43;11.50;;;;;;;26.54;57.53;101340.41;4945095;28;20074;-81
2022/08/30 08:06:06;;;;;;;15.50;11.40;;;;;;;26.80;58.17;101378.25;4945677;28;20133;-80
2022/08/30 08:08:34;;;;;;;15.35;11.82;;;;;;;27.02;57.68;101418.69;4948435;28;20298;-81
2022/08/30 08:11:11;;;;;;;18.77;12.35;;;;;;;27.05;57.98;101412.78;4949295;28;20501;-82
2022/08/30 08:13:44;;;;;;;14.67;12.03;;;;;;;27.10;57.73;101393.03;4949421;28;20557;-80
2022/08/30 08:16:25;;;;;;;18.80;12.18;;;;;;;27.35;58.02;101426.50;4949293;28;20059;-81
2022/08/30 08:18:53;;;;;;;14.88;13.05;;;;;;;27.32;58.12;101415.25;4949398;28;20046;-81
2022/08/30 08:21:22;;;;;;;16.13;12.95;;;;;;;26.90;57.85;101350.50;4949656;28;20054;-81
2022/08/30 08:23:50;;;;;;;17.35;13.45;;;;;;;26.89;58.05;101346.09;4961055;28;20529;-81
2022/08/30 08:26:17;;;;;;;23.48;14.65;;;;;;;26.91;58.41;101338.53;4972209;28;20085;-81
2022/08/30 08:28:45;;;;;;;16.92;12.60;;;;;;;27.15;58.33;101352.31;4970016;28;20380;-80
2022/08/30 08:31:24;;;;;;;22.45;14.75;;;;;;;27.60;58.63;101414.66;4968888;28;20521;-81
2022/08/30 08:34:01;;;;;;;15.88;13.75;;;;;;;27.62;58.26;101412.53;4983647;28;20050;-82
2022/08/30 08:36:30;;;;;;;19.02;14.32;;;;;;;27.64;57.81;101399.50;4968470;28;20616;-81
2022/08/30 08:38:57;;;;;;;20.88;15.25;;;;;;;27.41;58.08;101362.91;4968531;28;20046;-80
2022/08/30 08:41:54;;;;;;;17.80;15.60;;;;;;;27.64;59.13;101421.34;4968092;28;20188;-80
2022/08/30 08:44:44;;;;;;;22.42;15.10;;;;;;;27.26;59.17;101318.88;4968151;28;20900;-80
2022/08/30 08:47:23;;;;;;;22.42;15.43;;;;;;;27.58;59.19;101373.19;4962485;28;20051;-81
2022/08/30 08:49:55;;;;;;;20.65;16.10;;;;;;;27.81;58.76;101407.88;4948462;28;20596;-82
2022/08/30 08:55:19;;;;;;;20.60;15.38;;;;;;;27.99;58.92;101402.41;4949664;28;20469;-80
2022/08/30 08:57:47;;;;;;;22.75;15.63;;;;;;;28.07;59.03;101403.97;4948278;28;20141;-81
2022/08/30 09:00:14;;;;;;;16.48;12.95;;;;;;;27.94;58.69;101376.88;4952151;28;20047;-81
2022/08/30 09:02:51;;;;;;;19.25;14.23;;;;;;;27.95;58.15;101373.09;4944871;28;20149;-82
2022/08/30 09:05:26;;;;;;;15.18;13.48;;;;;;;28.07;57.59;101369.31;4943360;28;20228;-82
2022/08/30 09:08:04;;;;;;;14.48;12.35;;;;;;;28.06;57.31;101342.25;4944804;28;20533;-81
2022/08/30 09:10:37;;;;;;;18.35;12.65;;;;;;;28.38;57.28;101366.53;4942550;28;20521;-80
2022/08/30 09:13:19;;;;;;;16.27;14.25;;;;;;;27.38;56.83;101193.50;4947936;28;20054;-81
2022/08/30 09:16:06;;;;;;;20.83;13.68;;;;;;;28.43;56.87;101358.44;4948171;28;20494;-82
2022/08/30 09:18:48;;;;;;;15.05;13.55;;;;;;;28.49;55.84;101362.97;4948213;28;20051;-81
2022/08/30 09:21:23;;;;;;;21.90;11.95;;;;;;;28.38;55.94;101334.59;4948502;28;20051;-81
2022/08/30 09:23:57;;;;;;;18.08;12.05;;;;;;;28.86;55.57;101395.50;4954702;28;20666;-82
2022/08/30 09:26:34;;;;;;;20.02;13.07;;;;;;;28.82;54.56;101376.03;4967373;28;20171;-81
2022/08/30 09:29:03;;;;;;;13.50;12.10;;;;;;;29.08;54.23;101398.47;4967611;28;20137;-82
2022/08/30 09:31:44;;;;;;;17.50;13.43;;;;;;;29.14;54.66;101403.81;4967162;28;20069;-81
2022/08/30 09:34:19;;;;;;;21.40;12.18;;;;;;;29.06;54.40;101374.13;4967231;28;20557;-81
2022/08/30 09:36:49;;;;;;;14.55;12.65;;;;;;;29.04;54.38;101370.78;4967029;28;20050;-83
2022/08/30 09:39:41;;;;;;;14.25;11.77;;;;;;;29.16;53.59;101363.41;4983664;28;20264;-81
2022/08/30 09:42:17;;;;;;;14.90;12.32;;;;;;;29.23;53.70;101356.97;4983284;28;20059;-80
2022/08/30 09:44:44;;;;;;;19.65;13.82;;;;;;;29.48;53.51;101371.13;4967632;28;20125;-81
2022/08/30 09:47:28;;;;;;;14.25;12.55;;;;;;;29.47;52.51;101353.09;4966989;28;20126;-82
2022/08/30 09:50:08;;;;;;;13.43;11.93;;;;;;;29.78;51.90;101381.03;4967218;28;20055;-82
2022/08/30 09:52:46;;;;;;;12.40;11.20;;;;;;;29.95;51.24;101383.78;4967007;28;20129;-83
2022/08/30 09:55:33;;;;;;;13.63;12.20;;;;;;;30.08;50.24;101385.41;4931335;28;20086;-81
2022/08/30 09:58:16;;;;;;;13.55;11.18;;;;;;;29.90;49.75;101334.44;4929093;28;20491;-83
2022/08/30 10:01:12;;;;;;;13.02;10.52;;;;;;;30.28;48.71;101379.47;4947321;28;20058;-81
2022/08/30 10:03:47;;;;;;;12.05;10.23;;;;;;;30.21;48.18;101342.06;4946603;28;20298;-82
2022/08/30 10:06:17;;;;;;;14.18;10.23;;;;;;;30.24;48.45;101341.59;4946174;28;20113;-82
2022/08/30 10:09:11;;;;;;;13.27;11.45;;;;;;;30.69;48.72;101380.91;4947730;28;20058;-82
2022/08/30 10:12:29;;;;;;;19.63;11.20;;;;;;;30.91;48.75;101380.13;4925249;28;20066;-82
2022/08/30 10:15:14;;;;;;;14.68;11.20;;;;;;;30.99;47.55;101372.28;4889146;29;20223;-81
2022/08/30 10:17:55;;;;;;;16.98;10.95;;;;;;;30.97;46.64;101321.53;4947460;28;20050;-80
2022/08/30 10:20:40;;;;;;;;;;;;;;;31.43;45.91;101385.19;4947982;28;20129;-82
2022/08/30 10:23:36;;;;;;;11.82;9.57;;;;;;;31.15;45.13;101306.69;4949160;28;20483;-82
2022/08/30 10:26:22;;;;;;;13.98;9.45;;;;;;;31.67;45.36;101381.06;4968199;28;20058;-81
2022/08/30 10:28:57;;;;;;;12.88;9.77;;;;;;;31.15;45.02;101279.28;4968459;28;20537;-81
2022/08/30 10:31:49;;;;;;;13.05;9.35;;;;;;;31.97;45.07;101385.25;4961167;28;20452;-81
2022/08/30 10:34:23;;;;;;;15.05;9.95;;;;;;;32.12;45.04;101371.63;4948575;28;20055;-82
2022/08/30 10:36:57;;;;;;;17.52;11.45;;;;;;;32.10;44.65;101373.81;4951872;28;20236;-82
2022/08/30 10:39:28;;;;;;;14.13;11.00;;;;;;;32.11;44.86;101349.91;4945751;28;20055;-82
2022/08/30 10:42:09;;;;;;;12.20;10.82;;;;;;;32.06;44.87;101347.94;4947149;28;20305;-82
2022/08/30 10:44:44;;;;;;;15.07;10.77;;;;;;;32.28;45.46;101363.50;4947504;28;20053;-82
2022/08/30 10:47:35;;;;;;;20.35;10.93;;;;;;;32.25;44.58;101331.91;4894282;28;20788;-82
2022/08/30 10:50:26;;;;;;;12.60;10.63;;;;;;;32.60;44.36;101351.66;4911972;28;20053;-82
2022/08/30 10:53:04;;;;;;;12.20;10.93;;;;;;;32.31;44.35;101302.56;4842215;28;20551;-81
2022/08/30 10:56:09;;;;;;;10.27;9.18;;;;;;;32.85;43.01;101351.81;4871190;28;20057;-82
2022/08/30 10:58:53;;;;;;;10.90;9.80;;;;;;;32.76;42.33;101314.91;4902281;28;20108;-82
2022/08/30 11:01:25;;;;;;;10.77;9.80;;;;;;;33.07;41.83;101350.81;4826555;28;20358;-82
2022/08/30 11:04:18;;;;;;;10.55;8.68;;;;;;;33.02;41.99;101339.78;4916197;28;20069;-82
2022/08/30 11:07:07;;;;;;;12.20;9.57;;;;;;;33.11;41.41;101346.41;4837486;28;20094;-81
2022/08/30 11:09:59;;;;;;;12.80;9.23;;;;;;;33.15;41.74;101344.78;4847627;28;20056;-82
2022/08/30 11:12:32;;;;;;;13.85;9.25;;;;;;;33.26;41.34;101349.25;4950426;28;20054;-79
2022/08/30 11:15:13;;;;;;;14.90;9.13;;;;;;;32.79;41.46;101286.88;4906826;29;20051;-80
2022/08/30 11:17:57;;;;;;;9.88;8.90;;;;;;;33.00;41.74;101299.59;4907120;29;20240;-81
2022/08/30 11:20:32;;;;;;;12.30;10.10;;;;;;;33.24;41.39;101332.19;4906511;29;20209;-81
2022/08/30 11:23:21;;;;;;;12.60;9.88;;;;;;;32.91;41.65;101289.41;4936433;28;20066;-79
2022/08/30 11:25:52;;;;;;;12.07;9.45;;;;;;;33.33;41.67;101327.81;4962987;28;20054;-79
2022/08/30 11:28:35;;;;;;;12.38;9.90;;;;;;;33.46;41.29;101311.88;4964092;28;20281;-80
2022/08/30 11:31:29;;;;;;;9.60;8.25;;;;;;;33.29;41.58;101277.16;4963161;28;20441;-81
2022/08/30 11:33:58;;;;;;;11.38;9.13;;;;;;;33.36;41.88;101296.97;4963875;28;20054;-80
2022/08/30 11:36:30;;;;;;;10.27;8.43;;;;;;;33.45;41.00;101299.19;4963598;28;20112;-80